Sleen, Netherlands
Current Conditions -  °F | °C
As of 2:55 AM on Sunday 23 Nov 2014 (Local Time) from EHGG Reporting Station
Clear Clear  
Wind Chill: 42°   Ceiling: Unl
Heat Index: 45°   Visibility: 4mi
Dew Point: 43°   Wind: 5mph
Humidity: 93%   Direction: 120°ESE
Pressure: 30.03"   Gusts: NA
Location:  52.77°N, 6.8°E
Report Text: EHGG 230155Z AUTO 12004KT 6000 NSC 07/06 Q1017
Loading
Personal Weather Stations






























Interactive Weather Map New forecast layout! Learn more

10-Day Weather Forecast

Advertisements
Track Severe Weather on mobile